Time;durP1;ratioP1;P1;durP2;ratioP2;P2;SDS_P1;SDS_P2;PMS_P1;PMS_P2;Temp;Humidity;BMP_temperature;BMP_pressure;BME280_temperature;BME280_humidity;BME280_pressure;Samples;Min_cycle;Max_cycle;Signal;HPM_P1;HPM_P2
2021/07/07 00:00:13;;;;;;;3.45;1.08;;;21.50;94.20;;;;;;4991501;28;20034;-81
2021/07/07 00:02:39;;;;;;;1.67;0.80;;;21.50;94.30;;;;;;5023271;28;20446;-81
2021/07/07 00:05:06;;;;;;;3.78;1.13;;;21.50;94.30;;;;;;5010115;28;20058;-80
2021/07/07 00:07:32;;;;;;;2.63;1.20;;;21.50;94.30;;;;;;4995320;28;20022;-80
2021/07/07 00:09:58;;;;;;;2.10;0.90;;;21.50;94.30;;;;;;5010988;28;20081;-82
2021/07/07 00:12:24;;;;;;;6.90;1.35;;;21.50;94.40;;;;;;4995556;28;20387;-82
2021/07/07 00:14:49;;;;;;;4.30;1.17;;;21.50;94.30;;;;;;4994711;28;20042;-80
2021/07/07 00:17:15;;;;;;;3.70;1.10;;;21.50;94.40;;;;;;4995366;28;20019;-81
2021/07/07 00:19:40;;;;;;;3.10;1.00;;;21.50;94.40;;;;;;4995331;28;20498;-82
2021/07/07 00:22:06;;;;;;;3.70;1.10;;;21.50;94.30;;;;;;4995280;28;20531;-81
2021/07/07 00:24:32;;;;;;;2.40;0.90;;;21.50;94.30;;;;;;4995276;28;20023;-80
2021/07/07 00:26:58;;;;;;;3.03;0.95;;;21.50;94.30;;;;;;4995674;28;20105;-83
2021/07/07 00:29:24;;;;;;;4.00;1.77;;;21.50;94.30;;;;;;4994005;28;20125;-82
2021/07/07 00:31:49;;;;;;;2.55;0.90;;;21.50;94.30;;;;;;4995047;28;20745;-79
2021/07/07 00:34:15;;;;;;;3.35;0.90;;;21.50;94.30;;;;;;4995236;28;20465;-79
2021/07/07 00:36:40;;;;;;;2.65;0.88;;;21.40;94.20;;;;;;4994944;28;20038;-82
2021/07/07 00:39:06;;;;;;;2.63;0.93;;;21.50;94.30;;;;;;4995219;28;20026;-79
2021/07/07 00:41:32;;;;;;;3.45;0.90;;;21.50;94.20;;;;;;4994931;28;20034;-81
2021/07/07 00:43:57;;;;;;;5.22;1.15;;;21.40;94.20;;;;;;4994733;28;20045;-79
2021/07/07 00:46:23;;;;;;;2.85;0.90;;;21.40;94.20;;;;;;4994543;28;20030;-83
2021/07/07 00:48:49;;;;;;;2.65;0.90;;;21.40;94.20;;;;;;4994722;28;20478;-85
2021/07/07 00:51:15;;;;;;;1.88;0.90;;;21.40;94.20;;;;;;4993664;28;20487;-82
2021/07/07 00:53:42;;;;;;;3.38;1.20;;;21.40;94.10;;;;;;4994748;28;20030;-84
2021/07/07 00:56:09;;;;;;;1.90;0.70;;;21.40;94.10;;;;;;4994858;28;20042;-83
2021/07/07 00:58:40;;;;;;;2.58;0.85;;;21.40;94.10;;;;;;4994637;28;20031;-84
2021/07/07 01:01:07;;;;;;;1.73;0.90;;;21.40;94.10;;;;;;4994784;28;20088;-81
2021/07/07 01:03:33;;;;;;;3.08;0.90;;;21.40;94.10;;;;;;4994588;28;20023;-81
2021/07/07 01:05:59;;;;;;;2.92;0.90;;;21.40;94.10;;;;;;4994940;28;20030;-81
2021/07/07 01:08:25;;;;;;;2.45;0.90;;;21.40;94.00;;;;;;4994959;28;20507;-81
2021/07/07 01:10:51;;;;;;;3.13;0.95;;;21.40;94.00;;;;;;4993191;28;20141;-81
2021/07/07 01:13:16;;;;;;;2.42;0.90;;;21.40;94.00;;;;;;4994560;28;20026;-81
2021/07/07 01:15:43;;;;;;;2.83;1.00;;;21.40;94.00;;;;;;4992328;28;20042;-80
2021/07/07 01:18:09;;;;;;;4.43;0.93;;;21.40;94.00;;;;;;4994037;28;20018;-81
2021/07/07 01:20:35;;;;;;;3.38;1.05;;;21.40;94.00;;;;;;5009226;28;20038;-79
2021/07/07 01:23:02;;;;;;;2.40;0.60;;;21.40;94.00;;;;;;4994433;28;20065;-80
2021/07/07 01:25:28;;;;;;;2.88;0.70;;;21.40;94.00;;;;;;4994675;28;20375;-80
2021/07/07 01:27:54;;;;;;;2.85;1.00;;;21.40;94.00;;;;;;4994034;28;20029;-81
2021/07/07 01:30:22;;;;;;;2.30;0.60;;;21.30;93.90;;;;;;4993148;28;20490;-80
2021/07/07 01:32:48;;;;;;;4.50;0.90;;;21.30;93.90;;;;;;4992667;28;20022;-82
2021/07/07 01:35:15;;;;;;;1.75;0.80;;;21.30;93.90;;;;;;4994194;28;20057;-82
2021/07/07 01:37:42;;;;;;;1.55;0.73;;;21.30;93.90;;;;;;4994014;28;20430;-81
2021/07/07 01:40:08;;;;;;;2.20;0.85;;;21.30;93.90;;;;;;4994110;28;20081;-78
2021/07/07 01:42:34;;;;;;;4.13;0.80;;;21.30;93.90;;;;;;4993174;28;20033;-81
2021/07/07 01:45:00;;;;;;;2.03;0.77;;;21.30;93.80;;;;;;4993370;28;20027;-80
2021/07/07 01:47:26;;;;;;;1.80;0.77;;;21.30;93.80;;;;;;5009177;28;20026;-79
2021/07/07 01:49:52;;;;;;;4.97;0.90;;;21.30;93.80;;;;;;4993595;28;20089;-80
2021/07/07 01:52:17;;;;;;;2.13;0.77;;;21.30;93.80;;;;;;4993851;28;20494;-82
2021/07/07 01:54:43;;;;;;;1.65;0.70;;;21.30;93.80;;;;;;4992300;28;20059;-82
2021/07/07 01:57:09;;;;;;;1.25;0.60;;;21.30;93.80;;;;;;4993676;28;20030;-82
2021/07/07 01:59:34;;;;;;;2.47;1.08;;;21.30;93.80;;;;;;4993357;28;20446;-83
2021/07/07 02:02:00;;;;;;;2.05;0.60;;;21.30;93.80;;;;;;4993503;28;20417;-78
2021/07/07 02:04:26;;;;;;;2.53;0.80;;;21.30;93.80;;;;;;4991852;28;20026;-79
2021/07/07 02:06:52;;;;;;;3.25;0.88;;;21.30;93.80;;;;;;4993133;28;20034;-78
2021/07/07 02:09:19;;;;;;;1.55;0.70;;;21.30;93.70;;;;;;4993573;28;20063;-81
2021/07/07 02:11:47;;;;;;;2.55;0.70;;;21.30;93.70;;;;;;4993211;28;20471;-78
2021/07/07 02:14:13;;;;;;;3.22;0.90;;;21.30;93.70;;;;;;4993341;28;20106;-81
2021/07/07 02:16:38;;;;;;;1.75;0.80;;;21.30;93.70;;;;;;4993066;28;20034;-82
2021/07/07 02:19:04;;;;;;;1.35;0.60;;;21.30;93.70;;;;;;4993220;28;20414;-81
2021/07/07 02:21:30;;;;;;;2.00;0.85;;;21.30;93.70;;;;;;4992717;28;20392;-79
2021/07/07 02:23:57;;;;;;;3.20;0.73;;;21.30;93.70;;;;;;4993601;28;20026;-78
2021/07/07 02:26:23;;;;;;;2.00;0.65;;;21.30;93.70;;;;;;4992780;28;20034;-78
2021/07/07 02:28:49;;;;;;;1.58;0.63;;;21.30;93.70;;;;;;5008022;28;20026;-80
2021/07/07 02:31:15;;;;;;;1.77;0.77;;;21.20;93.70;;;;;;4993197;28;20022;-80
2021/07/07 02:33:40;;;;;;;3.00;0.82;;;21.20;93.60;;;;;;4992942;28;20069;-79
2021/07/07 02:36:06;;;;;;;1.27;0.80;;;21.20;93.60;;;;;;4992548;28;20046;-81
2021/07/07 02:38:32;;;;;;;1.13;0.60;;;21.30;93.60;;;;;;4991899;28;20391;-78
2021/07/07 02:40:58;;;;;;;1.73;0.60;;;21.20;93.60;;;;;;4992694;28;20034;-80
2021/07/07 02:43:24;;;;;;;1.40;0.55;;;21.20;93.60;;;;;;4992997;28;20029;-78
2021/07/07 02:45:51;;;;;;;2.10;0.60;;;21.20;93.60;;;;;;4992512;28;20030;-81
2021/07/07 02:48:18;;;;;;;1.25;0.60;;;21.20;93.60;;;;;;4991649;28;20043;-80
2021/07/07 02:50:44;;;;;;;2.17;0.63;;;21.20;93.60;;;;;;4991990;28;20076;-79
2021/07/07 02:53:12;;;;;;;2.55;0.73;;;21.20;93.60;;;;;;4992848;28;20372;-80
2021/07/07 02:55:38;;;;;;;1.55;0.60;;;21.20;93.60;;;;;;4992475;28;20038;-78
2021/07/07 02:58:05;;;;;;;2.70;0.60;;;21.20;93.60;;;;;;4991454;28;20483;-80
2021/07/07 03:00:38;;;;;;;1.55;0.73;;;21.20;93.60;;;;;;4991807;28;20409;-78
2021/07/07 03:03:06;;;;;;;1.42;0.80;;;21.20;93.60;;;;;;4992461;28;20027;-78
2021/07/07 03:05:33;;;;;;;2.90;0.60;;;21.20;93.60;;;;;;4991848;28;20157;-81
2021/07/07 03:07:59;;;;;;;3.08;0.82;;;21.20;93.60;;;;;;4992854;28;20030;-79
2021/07/07 03:10:25;;;;;;;2.25;0.60;;;21.20;93.60;;;;;;4992706;28;20118;-78
2021/07/07 03:12:51;;;;;;;2.10;0.80;;;21.20;93.60;;;;;;4992175;28;20033;-78
2021/07/07 03:15:17;;;;;;;2.20;0.75;;;21.20;93.60;;;;;;4992298;28;20026;-79
2021/07/07 03:17:42;;;;;;;1.95;0.73;;;21.20;93.50;;;;;;4992358;28;20038;-81
2021/07/07 03:20:09;;;;;;;2.95;0.90;;;21.10;93.50;;;;;;4992397;28;20073;-81
2021/07/07 03:22:35;;;;;;;3.50;0.70;;;21.10;93.50;;;;;;4992072;28;20077;-81
2021/07/07 03:25:01;;;;;;;1.75;0.70;;;21.10;93.50;;;;;;4991318;28;20308;-80
2021/07/07 03:27:27;;;;;;;2.35;0.70;;;21.10;93.50;;;;;;4992483;28;20471;-78
2021/07/07 03:29:53;;;;;;;4.65;0.90;;;21.20;93.50;;;;;;4991737;28;20034;-80
2021/07/07 03:32:18;;;;;;;1.27;0.57;;;21.10;93.50;;;;;;4992071;28;20027;-79
2021/07/07 03:34:44;;;;;;;3.92;0.70;;;21.10;93.50;;;;;;4990084;28;20521;-81
2021/07/07 03:37:10;;;;;;;2.22;0.60;;;21.10;93.50;;;;;;4991829;28;20105;-78
2021/07/07 03:39:35;;;;;;;2.05;0.73;;;21.10;93.50;;;;;;4990762;28;20122;-79
2021/07/07 03:42:01;;;;;;;1.92;0.55;;;21.10;93.50;;;;;;4990638;28;20117;-79
2021/07/07 03:44:26;;;;;;;2.00;0.68;;;21.10;93.50;;;;;;4991151;28;20117;-78
2021/07/07 03:46:52;;;;;;;1.15;0.60;;;21.10;93.40;;;;;;4991763;28;20026;-82
2021/07/07 03:49:18;;;;;;;1.67;0.80;;;21.10;93.40;;;;;;4992184;28;20030;-80
2021/07/07 03:51:43;;;;;;;2.90;0.63;;;21.10;93.40;;;;;;4991676;28;20034;-78
2021/07/07 03:54:09;;;;;;;2.67;0.75;;;21.10;93.50;;;;;;4990279;28;20423;-78
2021/07/07 03:56:34;;;;;;;2.58;0.70;;;21.10;93.40;;;;;;4990487;28;20074;-80
2021/07/07 03:59:00;;;;;;;2.65;1.00;;;21.10;93.40;;;;;;5007188;28;20430;-79
2021/07/07 04:01:26;;;;;;;3.20;0.70;;;21.10;93.40;;;;;;4990462;28;20517;-79
2021/07/07 04:03:51;;;;;;;2.33;0.75;;;21.10;93.40;;;;;;4991407;28;20038;-78
2021/07/07 04:06:17;;;;;;;1.98;0.70;;;21.10;93.40;;;;;;4991712;28;20084;-79
2021/07/07 04:08:42;;;;;;;2.42;0.80;;;21.10;93.40;;;;;;4991395;28;20475;-83
2021/07/07 04:11:08;;;;;;;3.70;0.73;;;21.10;93.40;;;;;;4991762;28;20049;-80
2021/07/07 04:13:34;;;;;;;2.97;0.70;;;21.10;93.40;;;;;;4991563;28;20034;-83
2021/07/07 04:15:59;;;;;;;3.45;0.68;;;21.00;93.40;;;;;;4991626;28;20038;-80
2021/07/07 04:18:25;;;;;;;1.92;0.65;;;21.10;93.40;;;;;;4991646;28;20027;-81
2021/07/07 04:20:51;;;;;;;4.60;1.08;;;21.10;93.40;;;;;;4991390;28;20418;-81
2021/07/07 04:23:16;;;;;;;3.00;0.80;;;21.00;93.40;;;;;;4991467;28;20478;-81
2021/07/07 04:25:42;;;;;;;3.05;1.05;;;21.10;93.40;;;;;;4991423;28;20026;-81
2021/07/07 04:28:08;;;;;;;1.65;0.77;;;21.00;93.40;;;;;;4991692;28;20496;-79
2021/07/07 04:30:35;;;;;;;3.40;1.10;;;21.10;93.40;;;;;;4991674;28;20026;-82
2021/07/07 04:33:01;;;;;;;1.92;0.68;;;21.00;93.40;;;;;;4991854;28;20023;-79
2021/07/07 04:35:27;;;;;;;3.53;0.70;;;21.00;93.40;;;;;;4990551;28;20035;-78
2021/07/07 04:37:52;;;;;;;1.60;0.80;;;21.00;93.40;;;;;;4991352;28;20037;-82
2021/07/07 04:40:20;;;;;;;1.73;0.85;;;21.00;93.40;;;;;;4988935;28;20034;-77
2021/07/07 04:42:46;;;;;;;2.13;0.90;;;21.00;93.40;;;;;;4990851;28;20073;-79
2021/07/07 04:45:13;;;;;;;1.90;0.63;;;21.00;93.40;;;;;;4991260;28;20101;-81
2021/07/07 04:47:39;;;;;;;2.03;0.60;;;21.00;93.40;;;;;;5006185;28;20018;-78
2021/07/07 04:50:13;;;;;;;2.20;0.77;;;21.00;93.30;;;;;;4992777;28;20022;-79
2021/07/07 04:52:39;;;;;;;2.42;0.70;;;21.00;93.40;;;;;;4994450;28;20379;-81
2021/07/07 04:55:11;;;;;;;2.45;0.77;;;21.00;93.40;;;;;;4994706;28;20042;-78
2021/07/07 04:57:41;;;;;;;2.05;0.80;;;21.00;93.40;;;;;;4994737;28;20475;-78
2021/07/07 05:00:21;;;;;;;1.63;0.65;;;21.00;93.40;;;;;;4994128;28;20038;-79
2021/07/07 05:02:49;;;;;;;2.50;0.80;;;21.00;93.40;;;;;;4994710;28;20041;-78
2021/07/07 05:05:16;;;;;;;2.63;0.60;;;21.00;93.40;;;;;;4994650;28;20030;-78
2021/07/07 05:07:42;;;;;;;1.92;0.70;;;21.00;93.40;;;;;;4992817;28;20038;-77
2021/07/07 05:10:09;;;;;;;2.10;0.70;;;21.00;93.40;;;;;;4993729;28;20027;-80
2021/07/07 05:12:35;;;;;;;2.58;0.60;;;21.00;93.40;;;;;;4994121;28;20517;-79
2021/07/07 05:15:02;;;;;;;3.25;0.70;;;21.00;93.40;;;;;;4994804;28;20045;-79
2021/07/07 05:17:28;;;;;;;2.13;0.82;;;21.00;93.40;;;;;;4994802;28;20459;-78
2021/07/07 05:19:56;;;;;;;2.00;0.65;;;21.00;93.40;;;;;;4994237;28;20111;-81
2021/07/07 05:22:22;;;;;;;3.05;0.70;;;20.90;93.40;;;;;;5009195;28;20387;-79
2021/07/07 05:24:48;;;;;;;2.90;0.82;;;21.00;93.40;;;;;;4993459;28;20029;-80
2021/07/07 05:27:14;;;;;;;2.90;0.80;;;21.00;93.40;;;;;;4993237;28;20109;-79
2021/07/07 05:29:40;;;;;;;4.43;0.85;;;20.90;93.40;;;;;;5006876;28;20030;-80
2021/07/07 05:32:06;;;;;;;3.53;0.75;;;20.90;93.40;;;;;;4993685;28;20030;-80
2021/07/07 05:34:32;;;;;;;3.45;0.80;;;20.90;93.40;;;;;;4992983;28;20061;-82
2021/07/07 05:36:57;;;;;;;2.42;0.85;;;20.90;93.40;;;;;;4992226;28;20494;-85
2021/07/07 05:39:23;;;;;;;3.53;0.80;;;20.90;93.40;;;;;;4993342;28;20537;-82
2021/07/07 05:41:49;;;;;;;4.13;1.27;;;20.90;93.50;;;;;;4992619;28;20085;-81
2021/07/07 05:44:14;;;;;;;1.67;1.00;;;20.90;93.50;;;;;;4992738;28;20030;-83
2021/07/07 05:46:40;;;;;;;2.25;0.98;;;20.90;93.50;;;;;;4993895;28;20085;-80
2021/07/07 05:49:06;;;;;;;2.75;0.60;;;21.00;93.50;;;;;;4993936;28;20033;-81
2021/07/07 05:51:31;;;;;;;4.30;0.90;;;20.90;93.50;;;;;;4993647;28;20118;-80
2021/07/07 05:53:57;;;;;;;2.42;0.80;;;20.90;93.50;;;;;;4993031;28;20026;-80
2021/07/07 05:56:23;;;;;;;2.05;0.80;;;21.00;93.50;;;;;;4991880;28;20112;-79
2021/07/07 05:58:48;;;;;;;2.08;0.82;;;20.90;93.50;;;;;;4993568;28;20023;-82
2021/07/07 06:01:14;;;;;;;3.42;0.95;;;21.00;93.60;;;;;;4992487;28;20030;-81
2021/07/07 06:03:40;;;;;;;5.80;0.68;;;20.90;93.60;;;;;;4993579;28;20023;-85
2021/07/07 06:06:07;;;;;;;2.08;0.82;;;20.90;93.60;;;;;;4992881;28;20058;-81
2021/07/07 06:08:33;;;;;;;6.43;1.10;;;21.00;93.70;;;;;;4992834;28;20490;-81
2021/07/07 06:10:59;;;;;;;3.30;0.70;;;21.00;93.70;;;;;;4992137;28;20018;-80
2021/07/07 06:13:24;;;;;;;6.03;0.80;;;21.00;93.80;;;;;;4992759;28;20042;-80
2021/07/07 06:15:50;;;;;;;4.28;1.02;;;21.00;93.90;;;;;;4992332;28;20078;-79
2021/07/07 06:18:16;;;;;;;4.20;1.23;;;21.00;93.90;;;;;;4993367;28;20022;-79
2021/07/07 06:20:42;;;;;;;3.10;1.13;;;21.00;94.00;;;;;;4992969;28;20030;-80
2021/07/07 06:23:08;;;;;;;17.60;10.52;;;21.00;94.00;;;;;;4992074;28;20438;-79
2021/07/07 06:25:34;;;;;;;21.75;13.70;;;21.00;94.00;;;;;;4992933;28;20034;-81
2021/07/07 06:28:00;;;;;;;14.93;5.90;;;21.10;94.10;;;;;;4993412;28;20080;-81
2021/07/07 06:30:28;;;;;;;17.25;11.10;;;21.10;94.20;;;;;;4992629;28;20113;-80
2021/07/07 06:32:59;;;;;;;15.98;7.97;;;21.00;94.30;;;;;;4991270;28;20014;-81
2021/07/07 06:35:26;;;;;;;18.77;9.05;;;21.10;94.30;;;;;;4991046;28;20344;-81
2021/07/07 06:37:52;;;;;;;16.15;9.93;;;21.10;94.50;;;;;;4991988;28;20027;-83
2021/07/07 06:40:20;;;;;;;19.55;9.00;;;21.10;94.60;;;;;;4992900;28;20022;-81
2021/07/07 06:42:46;;;;;;;13.02;6.72;;;21.10;94.60;;;;;;4992533;28;20030;-82
2021/07/07 06:45:13;;;;;;;14.43;6.75;;;21.10;94.70;;;;;;4992021;28;20023;-78
2021/07/07 06:47:39;;;;;;;11.85;6.78;;;21.10;94.70;;;;;;4991019;28;20083;-79
2021/07/07 06:50:08;;;;;;;14.73;6.78;;;21.10;94.80;;;;;;4992442;28;20065;-81
2021/07/07 06:52:34;;;;;;;15.93;7.43;;;21.10;94.80;;;;;;4992257;28;20031;-79
2021/07/07 06:55:00;;;;;;;12.63;6.13;;;21.20;94.90;;;;;;4991155;28;20497;-80
2021/07/07 06:57:25;;;;;;;13.43;5.55;;;21.20;94.90;;;;;;4992144;28;20087;-76
2021/07/07 06:59:51;;;;;;;13.45;5.93;;;21.20;94.90;;;;;;4991074;28;20066;-76
2021/07/07 07:02:17;;;;;;;11.15;5.15;;;21.20;94.90;;;;;;4992354;28;20497;-76
2021/07/07 07:04:42;;;;;;;12.70;5.88;;;21.20;94.90;;;;;;4991264;28;20022;-77
2021/07/07 07:07:08;;;;;;;8.93;4.40;;;21.20;94.90;;;;;;4991880;28;20078;-74
2021/07/07 07:09:34;;;;;;;9.20;4.20;;;21.20;94.90;;;;;;4992711;28;20023;-76
2021/07/07 07:12:00;;;;;;;11.20;4.80;;;21.20;94.90;;;;;;4992087;28;20482;-79
2021/07/07 07:14:26;;;;;;;13.18;5.40;;;21.20;94.90;;;;;;4990902;28;20026;-81
2021/07/07 07:16:51;;;;;;;8.55;4.93;;;21.20;94.90;;;;;;4998344;28;20042;-80
2021/07/07 07:19:17;;;;;;;9.43;4.43;;;21.20;94.80;;;;;;4990050;28;20106;-81
2021/07/07 07:21:43;;;;;;;11.88;4.05;;;21.20;94.90;;;;;;4991217;28;20030;-81
2021/07/07 07:24:09;;;;;;;7.43;3.30;;;21.20;94.80;;;;;;4990810;28;20097;-81
2021/07/07 07:26:36;;;;;;;8.32;3.42;;;21.30;94.80;;;;;;4989767;28;20109;-81
2021/07/07 07:29:02;;;;;;;6.72;3.95;;;21.20;94.80;;;;;;4991023;28;20406;-82
2021/07/07 07:31:28;;;;;;;6.07;3.45;;;21.20;94.80;;;;;;4991273;28;20038;-82
2021/07/07 07:33:54;;;;;;;10.85;3.67;;;21.30;94.70;;;;;;4991545;28;20375;-80
2021/07/07 07:36:20;;;;;;;7.28;3.65;;;21.30;94.80;;;;;;4991988;28;20078;-80
2021/07/07 07:38:49;;;;;;;7.43;3.60;;;21.30;94.70;;;;;;4991909;28;20023;-80
2021/07/07 07:41:16;;;;;;;7.00;3.13;;;21.30;94.70;;;;;;4991515;28;20563;-80
2021/07/07 07:43:44;;;;;;;6.90;3.33;;;21.30;94.70;;;;;;4991889;28;20041;-81
2021/07/07 07:46:10;;;;;;;7.57;3.47;;;21.20;94.60;;;;;;4992185;28;20026;-81
2021/07/07 07:48:36;;;;;;;9.93;4.13;;;21.30;94.60;;;;;;4990480;28;20375;-82
2021/07/07 07:51:03;;;;;;;6.05;2.78;;;21.30;94.60;;;;;;4992193;28;20060;-82
2021/07/07 07:53:29;;;;;;;8.02;2.95;;;21.30;94.60;;;;;;4991982;28;20113;-82
2021/07/07 07:55:55;;;;;;;8.55;3.58;;;21.30;94.60;;;;;;4991314;28;20121;-81
2021/07/07 07:58:20;;;;;;;8.38;3.25;;;21.30;94.50;;;;;;4991817;28;20549;-82
2021/07/07 08:00:48;;;;;;;5.70;3.10;;;21.30;94.50;;;;;;4991545;28;20038;-82
2021/07/07 08:03:14;;;;;;;7.30;2.72;;;21.30;94.80;;;;;;4992005;28;20068;-82
2021/07/07 08:05:42;;;;;;;6.57;3.20;;;21.30;94.50;;;;;;4991630;28;20033;-82
2021/07/07 08:08:08;;;;;;;7.88;3.17;;;21.30;94.50;;;;;;4991845;28;20022;-82
2021/07/07 08:10:34;;;;;;;6.18;3.58;;;21.30;94.40;;;;;;4990431;28;20034;-82
2021/07/07 08:13:00;;;;;;;8.35;3.35;;;21.30;94.40;;;;;;4991105;28;20026;-82
2021/07/07 08:15:27;;;;;;;7.30;3.40;;;21.30;94.40;;;;;;4991605;28;20035;-82
2021/07/07 08:17:54;;;;;;;7.13;2.92;;;21.30;94.40;;;;;;4991394;28;20387;-82
2021/07/07 08:20:21;;;;;;;6.75;3.05;;;21.30;94.40;;;;;;4991716;28;20018;-82
2021/07/07 08:22:47;;;;;;;8.30;2.88;;;21.30;94.30;;;;;;4991361;28;20025;-82
2021/07/07 08:25:13;;;;;;;8.30;3.13;;;21.30;94.30;;;;;;4993479;28;20030;-82
2021/07/07 08:27:39;;;;;;;11.07;2.75;;;21.40;94.30;;;;;;4994548;28;20030;-82
2021/07/07 08:30:07;;;;;;;8.00;2.75;;;21.30;94.30;;;;;;4995520;28;20525;-82
2021/07/07 08:32:33;;;;;;;5.68;2.65;;;21.40;94.30;;;;;;4995441;28;20030;-80
2021/07/07 08:34:59;;;;;;;5.78;2.70;;;21.40;94.30;;;;;;4995294;28;20042;-81
2021/07/07 08:37:24;;;;;;;7.40;3.00;;;21.40;94.30;;;;;;4995272;28;20391;-81
2021/07/07 08:39:50;;;;;;;8.38;2.90;;;21.40;94.30;;;;;;4994582;28;20374;-81
2021/07/07 08:42:16;;;;;;;5.00;2.63;;;21.40;94.20;;;;;;4993258;28;20041;-81
2021/07/07 08:44:43;;;;;;;6.53;2.88;;;21.40;94.20;;;;;;4994707;28;20080;-81
2021/07/07 08:47:09;;;;;;;6.18;2.78;;;21.40;94.20;;;;;;4995281;28;20052;-80
2021/07/07 08:49:35;;;;;;;6.28;2.67;;;21.40;94.20;;;;;;4993919;28;20026;-80
2021/07/07 08:52:01;;;;;;;5.90;2.50;;;21.40;94.20;;;;;;4995159;28;20031;-81
2021/07/07 08:54:29;;;;;;;5.80;2.45;;;21.40;94.20;;;;;;4995035;28;20019;-81
2021/07/07 08:56:54;;;;;;;4.63;2.63;;;21.40;94.20;;;;;;4994356;28;20367;-81
2021/07/07 08:59:20;;;;;;;5.22;2.50;;;21.40;94.10;;;;;;4993882;28;20022;-81
2021/07/07 09:02:06;;;;;;;6.00;2.70;;;21.40;94.10;;;;;;4994265;28;20104;-81
2021/07/07 09:04:35;;;;;;;5.40;2.45;;;21.40;94.10;;;;;;4994375;28;20510;-80
2021/07/07 09:07:07;;;;;;;5.60;2.38;;;21.40;94.10;;;;;;4994074;28;20081;-80
2021/07/07 09:09:44;;;;;;;6.05;2.35;;;21.50;94.10;;;;;;4994473;28;20041;-81
2021/07/07 09:12:25;;;;;;;5.07;2.20;;;21.40;94.10;;;;;;4994816;28;20101;-81
2021/07/07 09:15:04;;;;;;;4.70;2.10;;;21.40;94.10;;;;;;4994183;28;20030;-81
2021/07/07 09:17:40;;;;;;;3.70;2.17;;;21.40;94.00;;;;;;4994700;28;20034;-81
2021/07/07 09:20:18;;;;;;;5.43;2.22;;;21.50;94.10;;;;;;4994552;28;20076;-80
2021/07/07 09:22:44;;;;;;;7.13;2.10;;;21.40;94.00;;;;;;4994393;28;20108;-80
2021/07/07 09:25:13;;;;;;;4.05;2.25;;;21.50;94.10;;;;;;4994248;28;20026;-82
2021/07/07 09:27:40;;;;;;;6.13;2.40;;;21.50;94.00;;;;;;4994093;28;20065;-81
2021/07/07 09:30:13;;;;;;;4.65;2.40;;;21.50;94.00;;;;;;4992911;28;20034;-82
2021/07/07 09:32:48;;;;;;;3.65;2.05;;;21.50;94.00;;;;;;4994175;28;20045;-82
2021/07/07 09:35:17;;;;;;;4.82;2.30;;;21.50;94.00;;;;;;4993936;28;20045;-82
2021/07/07 09:37:50;;;;;;;3.58;1.98;;;21.50;94.00;;;;;;4992566;28;20022;-82
2021/07/07 09:40:16;;;;;;;3.55;1.88;;;21.50;94.00;;;;;;4994026;28;20069;-82
2021/07/07 09:42:45;;;;;;;3.78;2.00;;;21.50;94.00;;;;;;4992091;28;20071;-82
2021/07/07 09:45:15;;;;;;;8.00;2.53;;;21.50;94.00;;;;;;4993773;28;20109;-82
2021/07/07 09:47:41;;;;;;;4.30;2.08;;;21.50;93.90;;;;;;5008881;28;20029;-82
2021/07/07 09:50:08;;;;;;;4.05;2.05;;;21.50;94.00;;;;;;4992950;28;20475;-82
2021/07/07 09:52:34;;;;;;;3.47;1.90;;;21.50;93.90;;;;;;4994001;28;20034;-82
2021/07/07 09:55:02;;;;;;;5.93;2.10;;;21.50;93.90;;;;;;4993713;28;20521;-82
2021/07/07 09:57:27;;;;;;;5.55;2.28;;;21.50;93.90;;;;;;4994145;28;20121;-81
2021/07/07 09:59:53;;;;;;;5.50;2.33;;;21.50;93.90;;;;;;4993380;28;20113;-82
2021/07/07 10:02:19;;;;;;;3.22;2.08;;;21.60;93.90;;;;;;4993744;28;20081;-81
2021/07/07 10:04:45;;;;;;;4.22;1.80;;;21.60;93.90;;;;;;4993391;28;20117;-81
2021/07/07 10:07:14;;;;;;;3.88;2.10;;;21.60;93.90;;;;;;4993589;28;20403;-82
2021/07/07 10:09:45;;;;;;;2.97;1.63;;;21.60;93.90;;;;;;4992725;28;20554;-84
2021/07/07 10:12:11;;;;;;;5.97;1.85;;;21.60;93.90;;;;;;4993570;28;20054;-80
2021/07/07 10:14:37;;;;;;;3.85;1.92;;;21.60;93.90;;;;;;4993364;28;20517;-80
2021/07/07 10:17:03;;;;;;;3.45;2.10;;;21.60;93.80;;;;;;4993567;28;20038;-80
2021/07/07 10:19:29;;;;;;;5.25;2.40;;;21.60;93.80;;;;;;4993075;28;20391;-78
2021/07/07 10:21:58;;;;;;;4.43;1.85;;;21.60;93.80;;;;;;4993018;28;20038;-78
2021/07/07 10:24:27;;;;;;;4.47;2.03;;;21.60;93.80;;;;;;4993216;28;20511;-80
2021/07/07 10:26:56;;;;;;;2.42;1.80;;;21.70;93.70;;;;;;4992944;28;20418;-83
2021/07/07 10:29:23;;;;;;;6.07;2.00;;;21.70;93.60;;;;;;4993284;28;20068;-82
2021/07/07 10:31:52;;;;;;;3.60;1.90;;;21.70;93.50;;;;;;4993082;28;20394;-80
2021/07/07 10:34:20;;;;;;;4.45;2.00;;;21.60;93.40;;;;;;4992978;28;20437;-80
2021/07/07 10:36:46;;;;;;;4.90;2.03;;;21.70;93.50;;;;;;4992431;28;20034;-78
2021/07/07 10:39:14;;;;;;;4.05;2.20;;;21.70;93.60;;;;;;4992774;28;20077;-79
2021/07/07 10:41:45;;;;;;;3.72;1.83;;;21.70;93.80;;;;;;4991559;28;20057;-81
2021/07/07 10:44:23;;;;;;;3.67;1.70;;;21.70;93.50;;;;;;5008074;28;20032;-78
2021/07/07 10:46:58;;;;;;;4.80;1.80;;;21.70;93.40;;;;;;4992630;28;20033;-79
2021/07/07 10:49:42;;;;;;;7.53;2.17;;;21.70;93.30;;;;;;4992490;28;20514;-79
2021/07/07 10:52:10;;;;;;;6.00;2.30;;;21.80;93.30;;;;;;5007786;28;20030;-81
2021/07/07 10:54:45;;;;;;;4.15;1.70;;;21.80;93.30;;;;;;4992593;28;20042;-80
2021/07/07 10:57:20;;;;;;;4.47;2.08;;;21.80;93.20;;;;;;4992971;28;20037;-80
2021/07/07 10:59:46;;;;;;;2.95;1.77;;;21.80;93.50;;;;;;4992432;28;20027;-79
2021/07/07 11:02:23;;;;;;;3.25;1.55;;;21.80;93.20;;;;;;4992266;28;20038;-79
2021/07/07 11:04:49;;;;;;;6.47;1.73;;;21.80;93.20;;;;;;4988915;28;20022;-79
2021/07/07 11:07:29;;;;;;;3.65;1.95;;;21.80;93.20;;;;;;4990749;28;20486;-84
2021/07/07 11:10:00;;;;;;;3.85;1.60;;;21.80;93.20;;;;;;4989113;28;20056;-82
2021/07/07 11:12:34;;;;;;;5.63;1.85;;;21.80;93.30;;;;;;4990811;28;20034;-83
2021/07/07 11:15:08;;;;;;;3.00;1.50;;;21.90;93.30;;;;;;4991162;28;20076;-83
2021/07/07 11:17:48;;;;;;;2.90;1.85;;;21.90;93.20;;;;;;4989679;28;20323;-83
2021/07/07 11:20:21;;;;;;;2.72;1.60;;;21.90;93.20;;;;;;4992570;28;20105;-82
2021/07/07 11:23:01;;;;;;;2.90;1.80;;;21.90;93.20;;;;;;4990785;28;20102;-83
2021/07/07 11:25:29;;;;;;;4.15;1.48;;;21.90;93.30;;;;;;4990560;28;20069;-80
2021/07/07 11:27:56;;;;;;;3.53;2.05;;;21.90;93.30;;;;;;4990269;28;20352;-80
2021/07/07 11:30:22;;;;;;;6.25;2.05;;;21.90;93.30;;;;;;4990625;28;20022;-83
2021/07/07 11:32:50;;;;;;;2.58;1.60;;;21.90;93.30;;;;;;4990435;28;20053;-80
2021/07/07 11:35:23;;;;;;;6.32;2.38;;;22.00;93.40;;;;;;4991369;28;20555;-81
2021/07/07 11:37:53;;;;;;;2.75;1.52;;;22.00;93.40;;;;;;4989205;28;20026;-80
2021/07/07 11:40:21;;;;;;;3.05;1.70;;;22.00;93.10;;;;;;4988108;28;20033;-80
2021/07/07 11:42:59;;;;;;;3.35;1.67;;;22.00;93.20;;;;;;4990245;28;20042;-81
2021/07/07 11:45:40;;;;;;;3.63;1.63;;;22.00;93.20;;;;;;5003603;28;20041;-82
2021/07/07 11:48:45;;;;;;;2.75;1.63;;;22.00;93.20;;;;;;4990552;28;20022;-80
2021/07/07 11:51:15;;;;;;;3.95;1.70;;;22.00;93.20;;;;;;4991356;28;20042;-82
2021/07/07 11:53:45;;;;;;;4.60;1.98;;;22.10;93.10;;;;;;4991518;28;20029;-80
2021/07/07 11:56:13;;;;;;;4.05;1.65;;;22.10;93.00;;;;;;4991498;28;20073;-79
2021/07/07 11:58:44;;;;;;;2.63;1.50;;;22.10;93.00;;;;;;4991875;28;20018;-79
2021/07/07 12:01:31;;;;;;;2.97;1.50;;;22.10;93.00;;;;;;4995297;28;20092;-79
2021/07/07 12:04:10;;;;;;;5.15;2.10;;;22.10;92.80;;;;;;4995438;28;20041;-79
2021/07/07 12:06:42;;;;;;;3.45;1.70;;;22.10;92.60;;;;;;4995705;28;20054;-79
2021/07/07 12:09:43;;;;;;;4.60;1.50;;;22.10;92.40;;;;;;4996095;28;20027;-79
2021/07/07 12:12:05;;;;;;;5.65;1.70;;;22.10;92.10;;;;;;4995812;28;20310;-79
2021/07/07 12:14:38;;;;;;;4.45;1.92;;;22.20;91.90;;;;;;4996055;28;20069;-83
2021/07/07 12:17:05;;;;;;;3.25;1.48;;;22.20;91.70;;;;;;4996047;28;20041;-79
2021/07/07 12:19:32;;;;;;;3.78;1.85;;;22.20;91.60;;;;;;4996074;28;20021;-79
2021/07/07 12:22:00;;;;;;;4.43;2.13;;;22.20;91.40;;;;;;4995258;28;20026;-79
2021/07/07 12:24:31;;;;;;;2.40;1.48;;;22.20;91.40;;;;;;4995412;28;20027;-79
2021/07/07 12:27:03;;;;;;;3.38;1.83;;;22.30;91.30;;;;;;4994348;28;20547;-79
2021/07/07 12:29:34;;;;;;;4.88;1.80;;;22.30;91.30;;;;;;4995025;28;20022;-79
2021/07/07 12:32:03;;;;;;;5.45;1.65;;;22.30;91.30;;;;;;4995175;28;20027;-79
2021/07/07 12:34:42;;;;;;;3.55;1.85;;;22.30;91.30;;;;;;4995192;28;20031;-79
2021/07/07 12:37:13;;;;;;;6.43;1.80;;;22.30;91.40;;;;;;4995075;28;20034;-79
2021/07/07 12:39:50;;;;;;;3.78;1.73;;;22.40;91.30;;;;;;4995149;28;20026;-79
2021/07/07 12:42:28;;;;;;;2.13;1.30;;;22.30;91.30;;;;;;4995475;28;20031;-79
2021/07/07 12:45:07;;;;;;;5.78;1.52;;;22.40;91.40;;;;;;4995093;28;20038;-79
2021/07/07 12:47:33;;;;;;;2.85;1.40;;;22.40;91.30;;;;;;4995342;28;20042;-79